createdAt,value
2023-04-09T00:01:46.720Z,35.10
2023-04-09T00:03:51.855Z,38.47
2023-04-09T00:05:57.956Z,33.30
2023-04-09T00:08:02.965Z,35.90
2023-04-09T00:10:12.419Z,38.35
2023-04-09T00:12:17.471Z,36.85
2023-04-09T00:14:23.089Z,38.75
2023-04-09T00:16:28.305Z,35.22
2023-04-09T00:18:33.349Z,34.83
2023-04-09T00:20:38.633Z,35.78
2023-04-09T00:22:43.641Z,33.88
2023-04-09T00:24:49.279Z,32.63
2023-04-09T00:26:57.131Z,30.10
2023-04-09T00:29:02.211Z,31.83
2023-04-09T00:31:07.873Z,32.25
2023-04-09T00:33:12.942Z,31.42
2023-04-09T00:35:19.000Z,31.38
2023-04-09T00:37:24.367Z,29.45
2023-04-09T00:39:29.555Z,29.95
2023-04-09T00:41:34.993Z,30.30
2023-04-09T00:43:42.623Z,25.90
2023-04-09T00:45:48.190Z,28.15
2023-04-09T00:47:54.080Z,30.63
2023-04-09T00:49:59.489Z,28.00
2023-04-09T00:52:05.119Z,30.90
2023-04-09T00:54:10.849Z,27.65
2023-04-09T00:56:16.703Z,29.05
2023-04-09T00:58:21.868Z,27.25
2023-04-09T01:00:29.787Z,29.30
2023-04-09T01:02:35.615Z,32.75
2023-04-09T01:04:43.282Z,27.33
2023-04-09T01:06:55.437Z,27.60
2023-04-09T01:09:09.104Z,31.08
2023-04-09T01:11:26.925Z,27.80
2023-04-09T01:13:42.456Z,35.38
2023-04-09T01:15:55.035Z,28.10
2023-04-09T01:18:10.308Z,34.80
2023-04-09T01:20:21.417Z,40.42
2023-04-09T01:22:39.859Z,35.28
2023-04-09T01:25:00.696Z,33.25
2023-04-09T01:27:14.828Z,34.45
2023-04-09T01:29:42.193Z,31.05
2023-04-09T01:31:48.461Z,36.20
2023-04-09T01:33:55.446Z,33.42
2023-04-09T01:36:01.690Z,35.47
2023-04-09T01:38:07.979Z,37.30
2023-04-09T01:40:14.380Z,37.75
2023-04-09T01:42:20.553Z,38.10
2023-04-09T01:44:27.801Z,39.13
2023-04-09T01:46:36.975Z,33.90
2023-04-09T01:48:42.975Z,30.92
2023-04-09T01:50:48.819Z,36.13
2023-04-09T01:52:54.704Z,34.67
2023-04-09T01:54:59.766Z,35.20
2023-04-09T01:57:04.781Z,36.70
2023-04-09T01:59:09.849Z,31.35
2023-04-09T02:01:23.520Z,34.53
2023-04-09T02:03:38.338Z,36.50
2023-04-09T02:05:55.930Z,36.50
2023-04-09T02:08:07.740Z,33.22
2023-04-09T02:10:17.500Z,37.60
2023-04-09T02:12:24.445Z,33.75
2023-04-09T02:14:31.234Z,31.42
2023-04-09T02:16:37.102Z,32.15
2023-04-09T02:18:45.107Z,37.55
2023-04-09T02:20:50.113Z,43.85
2023-04-09T02:22:55.118Z,34.60
2023-04-09T02:25:00.168Z,34.88
2023-04-09T02:27:06.306Z,36.50
2023-04-09T02:29:11.383Z,34.90
2023-04-09T02:31:16.640Z,37.05
2023-04-09T02:33:22.070Z,35.55
2023-04-09T02:35:29.885Z,33.67
2023-04-09T02:37:35.065Z,36.65
2023-04-09T02:39:40.114Z,33.40
2023-04-09T02:41:45.111Z,35.42
2023-04-09T02:43:50.409Z,33.42
2023-04-09T02:45:55.864Z,35.55
2023-04-09T02:48:00.903Z,34.95
2023-04-09T02:50:11.727Z,36.30
2023-04-09T02:52:27.093Z,32.40
2023-04-09T02:54:32.128Z,36.45
2023-04-09T02:56:37.286Z,35.08
2023-04-09T02:58:42.522Z,34.15
2023-04-09T03:00:47.838Z,34.03
2023-04-09T03:02:55.864Z,36.97
2023-04-09T03:05:01.510Z,33.17
2023-04-09T03:07:06.572Z,35.03
2023-04-09T03:09:14.188Z,34.28
2023-04-09T03:11:19.448Z,36.90
2023-04-09T03:13:24.741Z,35.08
2023-04-09T03:15:30.383Z,31.63
2023-04-09T03:17:35.452Z,34.58
2023-04-09T03:19:40.564Z,36.15
2023-04-09T03:21:46.658Z,35.78
2023-04-09T03:23:51.681Z,37.28
2023-04-09T03:26:07.220Z,39.03
2023-04-09T03:28:19.878Z,25.55
2023-04-09T03:30:29.802Z,36.88
2023-04-09T03:32:36.327Z,37.38
2023-04-09T03:34:42.554Z,35.88
2023-04-09T03:36:48.163Z,36.80
2023-04-09T03:41:16.621Z,38.65
2023-04-09T03:43:21.790Z,34.92
2023-04-09T03:45:30.177Z,38.67
2023-04-09T03:47:49.208Z,33.58
2023-04-09T03:49:56.766Z,32.97
2023-04-09T03:52:05.972Z,32.78
2023-04-09T03:54:15.959Z,35.45
2023-04-09T03:56:24.617Z,32.58
2023-04-09T03:58:29.722Z,38.70
2023-04-09T04:00:35.946Z,32.05
2023-04-09T04:02:59.718Z,33.45
2023-04-09T04:05:28.493Z,35.70
2023-04-09T04:07:37.647Z,38.95
2023-04-09T04:09:48.000Z,39.25
2023-04-09T04:11:59.006Z,35.95
2023-04-09T04:14:16.770Z,36.03
2023-04-09T04:16:26.070Z,38.30
2023-04-09T04:18:33.358Z,42.15
2023-04-09T04:20:38.880Z,33.92
2023-04-09T04:22:48.572Z,43.00
2023-04-09T04:24:54.265Z,41.75
2023-04-09T04:27:03.697Z,41.63
2023-04-09T04:29:12.619Z,38.33
2023-04-09T04:31:27.698Z,41.85
2023-04-09T04:33:36.779Z,43.92
2023-04-09T04:35:45.965Z,37.42
2023-04-09T04:38:07.997Z,37.00
2023-04-09T04:40:16.237Z,32.75
2023-04-09T04:42:23.956Z,33.17
2023-04-09T04:44:29.284Z,32.40
2023-04-09T04:46:43.674Z,31.92
2023-04-09T04:48:49.593Z,36.92
2023-04-09T04:51:02.411Z,32.72
2023-04-09T04:53:18.572Z,32.22
2023-04-09T04:55:28.271Z,35.90
2023-04-09T04:57:36.616Z,35.75
2023-04-09T04:59:43.214Z,36.28
2023-04-09T05:01:50.690Z,33.90
2023-04-09T05:03:56.508Z,35.65
2023-04-09T05:06:12.484Z,39.45
2023-04-09T05:08:21.585Z,38.35
2023-04-09T05:10:30.183Z,39.47
2023-04-09T05:12:39.468Z,37.60
2023-04-09T05:14:46.631Z,33.55
2023-04-09T05:16:52.411Z,38.03
2023-04-09T05:19:02.395Z,34.72
2023-04-09T05:21:08.217Z,36.45
2023-04-09T05:23:14.224Z,34.75
2023-04-09T05:25:24.022Z,42.35
2023-04-09T05:27:29.893Z,36.90
2023-04-09T05:29:41.844Z,34.90
2023-04-09T05:31:48.879Z,31.65
2023-04-09T05:34:06.657Z,33.67
2023-04-09T05:36:19.562Z,30.25
2023-04-09T05:38:24.624Z,30.77
2023-04-09T05:40:35.609Z,32.88
2023-04-09T05:42:44.423Z,32.33
2023-04-09T05:44:59.002Z,52.60
2023-04-09T05:47:04.180Z,36.90
2023-04-09T05:49:17.904Z,34.15
2023-04-09T05:51:25.716Z,35.15
2023-04-09T05:53:31.544Z,34.58
2023-04-09T05:55:37.042Z,34.47
2023-04-09T05:57:42.405Z,33.00
2023-04-09T05:59:48.377Z,31.17
2023-04-09T06:01:56.442Z,35.28
2023-04-09T06:04:02.367Z,35.13
2023-04-09T06:06:09.132Z,35.38
2023-04-09T06:08:14.560Z,34.13
2023-04-09T06:10:20.441Z,31.38
2023-04-09T06:12:26.769Z,42.78
2023-04-09T06:14:33.332Z,34.20
2023-04-09T06:16:38.431Z,33.28
2023-04-09T06:18:46.873Z,33.78
2023-04-09T06:20:52.304Z,32.75
2023-04-09T06:22:57.790Z,31.15
2023-04-09T06:25:03.217Z,33.55
2023-04-09T06:27:08.348Z,35.05
2023-04-09T06:29:13.595Z,34.78
2023-04-09T06:31:19.151Z,32.65
2023-04-09T06:33:24.348Z,33.78
2023-04-09T06:35:32.164Z,31.10
2023-04-09T06:37:37.338Z,32.70
2023-04-09T06:39:50.644Z,32.38
2023-04-09T06:41:59.465Z,35.35
2023-04-09T06:44:17.144Z,31.77
2023-04-09T06:46:22.651Z,32.13
2023-04-09T06:48:27.862Z,33.25
2023-04-09T06:50:35.509Z,35.58
2023-04-09T06:52:40.832Z,32.67
2023-04-09T06:54:46.293Z,32.83
2023-04-09T06:56:52.013Z,32.88
2023-04-09T06:58:57.262Z,35.92
2023-04-09T07:01:02.973Z,34.90
2023-04-09T07:03:09.463Z,31.80
2023-04-09T07:05:14.763Z,34.25
2023-04-09T07:07:24.377Z,32.28
2023-04-09T07:09:31.715Z,32.70
2023-04-09T07:11:37.186Z,31.75
2023-04-09T07:13:42.230Z,32.20
2023-04-09T07:15:47.387Z,33.47
2023-04-09T07:17:52.494Z,33.30
2023-04-09T07:19:57.716Z,33.70
2023-04-09T07:22:02.741Z,31.83
2023-04-09T07:24:10.742Z,33.38
2023-04-09T07:26:15.757Z,34.95
2023-04-09T07:28:21.524Z,33.60
2023-04-09T07:30:27.562Z,33.65
2023-04-09T07:32:32.897Z,34.33
2023-04-09T07:34:37.933Z,33.20
2023-04-09T07:36:43.391Z,33.55
2023-04-09T07:38:48.789Z,37.13
2023-04-09T07:40:56.616Z,35.47
2023-04-09T07:43:01.790Z,37.22
2023-04-09T07:45:07.830Z,32.20
2023-04-09T07:47:13.323Z,37.30
2023-04-09T07:49:18.967Z,36.97
2023-04-09T07:51:24.007Z,37.00
2023-04-09T07:53:29.306Z,37.35
2023-04-09T07:55:34.372Z,39.97
2023-04-09T07:57:43.174Z,35.83
2023-04-09T07:59:48.400Z,36.75
2023-04-09T08:01:53.787Z,33.30
2023-04-09T08:03:59.057Z,35.88
2023-04-09T08:06:04.269Z,34.75
2023-04-09T08:08:09.598Z,38.45
2023-04-09T08:10:16.502Z,39.20
2023-04-09T08:12:21.538Z,34.65
2023-04-09T08:14:29.201Z,39.65
2023-04-09T08:16:34.325Z,37.10
2023-04-09T08:18:39.925Z,41.40
2023-04-09T08:20:45.723Z,34.70
2023-04-09T08:22:50.948Z,36.53
2023-04-09T08:24:56.482Z,33.47
2023-04-09T08:27:01.995Z,36.88
2023-04-09T08:29:07.599Z,39.08
2023-04-09T08:31:15.873Z,36.50
2023-04-09T08:33:21.192Z,33.33
2023-04-09T08:35:26.227Z,35.58
2023-04-09T08:37:31.228Z,34.40
2023-04-09T08:39:36.545Z,35.33
2023-04-09T08:41:46.779Z,32.55
2023-04-09T08:43:58.318Z,33.72
2023-04-09T08:46:04.846Z,30.40
2023-04-09T08:48:13.442Z,32.80
2023-04-09T08:50:18.808Z,30.65
2023-04-09T08:52:35.132Z,34.75
2023-04-09T08:54:40.827Z,35.10
2023-04-09T08:56:46.074Z,29.50
2023-04-09T08:58:53.075Z,28.92
2023-04-09T09:00:58.518Z,28.35
2023-04-09T09:03:08.743Z,27.02
2023-04-09T09:05:16.378Z,28.25
2023-04-09T09:07:21.474Z,33.70
2023-04-09T09:09:26.990Z,26.80
2023-04-09T09:11:33.118Z,27.15
2023-04-09T09:13:38.159Z,27.67
2023-04-09T09:15:43.308Z,27.30
2023-04-09T09:17:58.406Z,28.90
2023-04-09T09:20:25.835Z,27.38
2023-04-09T09:22:30.874Z,23.83
2023-04-09T09:24:36.726Z,25.65
2023-04-09T09:26:42.339Z,24.88
2023-04-09T09:28:48.346Z,24.58
2023-04-09T09:30:53.552Z,28.55
2023-04-09T09:33:09.515Z,26.15
2023-04-09T09:35:14.896Z,26.25
2023-04-09T09:37:32.983Z,28.23
2023-04-09T09:39:47.170Z,24.45
2023-04-09T09:42:09.507Z,22.13
2023-04-09T09:44:32.897Z,22.88
2023-04-09T09:46:41.249Z,23.50
2023-04-09T09:48:50.178Z,22.00
2023-04-09T09:50:55.846Z,20.92
2023-04-09T09:53:07.191Z,20.38
2023-04-09T09:55:16.307Z,21.08
2023-04-09T09:57:24.663Z,22.50
2023-04-09T09:59:37.205Z,23.30
2023-04-09T10:01:44.162Z,21.42
2023-04-09T10:03:52.756Z,23.00
2023-04-09T10:05:59.088Z,22.08
2023-04-09T10:08:07.194Z,22.27
2023-04-09T10:10:12.796Z,19.27
2023-04-09T10:12:18.765Z,21.48
2023-04-09T10:14:24.668Z,25.02
2023-04-09T10:16:31.391Z,21.70
2023-04-09T10:18:36.953Z,23.27
2023-04-09T10:20:49.606Z,21.83
2023-04-09T10:22:56.273Z,21.08
2023-04-09T10:25:04.143Z,21.13
2023-04-09T10:27:19.756Z,24.85
2023-04-09T10:29:31.758Z,17.52
2023-04-09T10:31:56.369Z,18.13
2023-04-09T10:34:08.213Z,16.52
2023-04-09T10:36:15.862Z,14.27
2023-04-09T10:38:35.651Z,19.90
2023-04-09T10:40:52.279Z,20.23
2023-04-09T10:42:58.813Z,21.27
2023-04-09T10:45:12.041Z,19.40
2023-04-09T10:49:41.380Z,24.65
2023-04-09T10:51:54.369Z,22.52
2023-04-09T10:53:59.402Z,18.05
2023-04-09T10:56:19.370Z,18.30
2023-04-09T10:58:24.762Z,17.80
2023-04-09T11:00:30.500Z,20.90
2023-04-09T11:03:08.387Z,12.95
2023-04-09T11:05:25.417Z,14.15
2023-04-09T11:07:33.198Z,19.15
2023-04-09T11:09:38.712Z,16.52
2023-04-09T11:11:46.549Z,18.10
2023-04-09T11:13:52.112Z,16.17
2023-04-09T11:15:58.948Z,15.98
2023-04-09T11:18:07.192Z,21.20
2023-04-09T11:20:14.036Z,18.40
2023-04-09T11:22:19.307Z,17.10
2023-04-09T11:24:25.931Z,15.95
2023-04-09T11:26:39.472Z,18.35
2023-04-09T11:28:47.738Z,15.02
2023-04-09T11:30:54.898Z,15.68
2023-04-09T11:33:00.372Z,15.70
2023-04-09T11:35:05.598Z,18.33
2023-04-09T11:37:17.329Z,20.00
2023-04-09T11:39:22.625Z,18.95
2023-04-09T11:41:37.386Z,15.65
2023-04-09T11:43:42.630Z,13.77
2023-04-09T11:45:50.850Z,15.93
2023-04-09T11:47:56.592Z,18.25
2023-04-09T11:50:02.165Z,12.63
2023-04-09T11:52:08.013Z,13.00
2023-04-09T11:54:15.567Z,10.40
2023-04-09T11:56:20.709Z,10.93
2023-04-09T11:58:26.933Z,11.45
2023-04-09T12:00:32.570Z,11.63
2023-04-09T12:02:42.053Z,11.30
2023-04-09T12:04:53.371Z,13.05
2023-04-09T12:07:00.705Z,11.77
2023-04-09T12:09:06.161Z,10.38
2023-04-09T12:11:13.018Z,10.68
2023-04-09T12:13:18.061Z,10.40
2023-04-09T12:15:25.615Z,10.52
2023-04-09T12:17:30.759Z,13.68
2023-04-09T12:19:39.946Z,9.68
2023-04-09T12:21:53.106Z,12.00
2023-04-09T12:26:03.633Z,29.65
2023-04-09T12:28:10.488Z,15.57
2023-04-09T12:30:15.784Z,10.80
2023-04-09T12:32:20.813Z,8.73
2023-04-09T12:34:27.752Z,11.00
2023-04-09T12:36:35.378Z,8.88
2023-04-09T12:38:40.540Z,8.48
2023-04-09T12:40:45.591Z,8.93
2023-04-09T12:42:50.986Z,9.35
2023-04-09T12:44:56.112Z,8.65
2023-04-09T12:47:01.592Z,7.72
2023-04-09T12:49:06.616Z,8.30
2023-04-09T12:51:12.068Z,8.73
2023-04-09T12:53:19.700Z,8.75
2023-04-09T12:55:25.465Z,9.00
2023-04-09T12:57:31.074Z,7.68
2023-04-09T12:59:36.137Z,7.90
2023-04-09T13:01:43.301Z,13.52
2023-04-09T13:03:48.826Z,9.25
2023-04-09T13:05:54.340Z,8.63
2023-04-09T13:07:59.324Z,8.65
2023-04-09T13:10:07.618Z,8.95
2023-04-09T13:12:12.805Z,8.10
2023-04-09T13:14:17.858Z,9.55
2023-04-09T13:16:22.905Z,15.15
2023-04-09T13:18:27.931Z,8.25
2023-04-09T13:20:33.396Z,7.38
2023-04-09T13:22:39.273Z,8.60
2023-04-09T13:24:44.437Z,9.23
2023-04-09T13:26:52.851Z,8.30
2023-04-09T13:28:58.782Z,7.28
2023-04-09T13:31:04.187Z,9.65
2023-04-09T13:33:09.967Z,7.78
2023-04-09T13:35:15.277Z,10.43
2023-04-09T13:37:20.561Z,7.30
2023-04-09T13:39:25.574Z,6.50
2023-04-09T13:41:31.829Z,7.18
2023-04-09T13:43:39.648Z,7.38
2023-04-09T13:45:44.944Z,8.55
2023-04-09T13:47:50.448Z,8.13
2023-04-09T13:49:55.953Z,9.68
2023-04-09T13:52:01.303Z,8.57
2023-04-09T13:54:08.202Z,9.40
2023-04-09T13:56:13.367Z,8.32
2023-04-09T13:58:18.976Z,7.65
2023-04-09T14:00:27.765Z,7.88
2023-04-09T14:02:33.162Z,7.35
2023-04-09T14:04:38.505Z,12.93
2023-04-09T14:06:44.598Z,11.98
2023-04-09T14:08:49.813Z,7.45
2023-04-09T14:10:54.878Z,7.43
2023-04-09T14:13:00.165Z,13.63
2023-04-09T14:15:05.248Z,6.88
2023-04-09T14:17:13.401Z,6.55
2023-04-09T14:19:18.632Z,6.30
2023-04-09T14:21:24.049Z,7.85
2023-04-09T14:23:29.565Z,6.95
2023-04-09T14:25:34.608Z,8.82
2023-04-09T14:27:40.153Z,9.57
2023-04-09T14:29:45.227Z,7.28
2023-04-09T14:31:53.463Z,7.60
2023-04-09T14:34:01.906Z,5.47
2023-04-09T14:36:07.828Z,5.95
2023-04-09T14:38:13.133Z,8.32
2023-04-09T14:40:18.215Z,7.65
2023-04-09T14:42:23.463Z,6.90
2023-04-09T14:44:28.547Z,5.53
2023-04-09T14:46:33.844Z,6.25
2023-04-09T14:48:39.529Z,9.73
2023-04-09T14:50:47.196Z,8.70
2023-04-09T14:52:52.989Z,10.38
2023-04-09T14:54:58.001Z,9.52
2023-04-09T14:57:03.891Z,7.32
2023-04-09T14:59:09.799Z,9.20
2023-04-09T15:01:14.839Z,7.25
2023-04-09T15:03:20.268Z,14.57
2023-04-09T15:05:25.930Z,7.57
2023-04-09T15:07:34.020Z,9.55
2023-04-09T15:09:39.069Z,8.00
2023-04-09T15:11:44.290Z,8.38
2023-04-09T15:13:49.431Z,7.97
2023-04-09T15:15:54.678Z,8.15
2023-04-09T15:18:06.045Z,8.35
2023-04-09T15:20:13.999Z,7.25
2023-04-09T15:22:19.164Z,8.02
2023-04-09T15:24:26.833Z,6.72
2023-04-09T15:26:33.310Z,6.25
2023-04-09T15:28:38.720Z,6.93
2023-04-09T15:30:43.819Z,9.13
2023-04-09T15:32:49.207Z,7.30
2023-04-09T15:34:54.432Z,7.05
2023-04-09T15:36:59.526Z,7.65
2023-04-09T15:39:06.731Z,7.47
2023-04-09T15:41:16.941Z,8.02
2023-04-09T15:43:23.393Z,10.18
2023-04-09T15:45:29.782Z,7.28
2023-04-09T15:47:35.384Z,7.65
2023-04-09T15:49:41.012Z,7.97
2023-04-09T15:51:46.045Z,9.55
2023-04-09T15:53:51.161Z,5.60
2023-04-09T15:55:56.194Z,8.02
2023-04-09T15:58:04.064Z,6.97
2023-04-09T16:00:12.333Z,11.15
2023-04-09T16:02:17.626Z,5.55
2023-04-09T16:04:22.695Z,6.45
2023-04-09T16:06:28.115Z,7.35
2023-04-09T16:08:33.131Z,9.23
2023-04-09T16:10:38.474Z,6.63
2023-04-09T16:12:43.497Z,11.10
2023-04-09T16:14:51.635Z,9.43
2023-04-09T16:16:56.702Z,7.95
2023-04-09T16:19:01.815Z,6.20
2023-04-09T16:21:08.269Z,6.95
2023-04-09T16:23:13.287Z,18.83
2023-04-09T16:25:18.326Z,8.02
2023-04-09T16:27:23.470Z,9.10
2023-04-09T16:29:28.533Z,7.28
2023-04-09T16:31:36.480Z,6.43
2023-04-09T16:33:41.640Z,6.50
2023-04-09T16:35:47.148Z,6.47
2023-04-09T16:37:52.537Z,6.85
2023-04-09T16:39:58.220Z,9.27
2023-04-09T16:42:03.344Z,7.70
2023-04-09T16:44:08.986Z,9.45
2023-04-09T16:46:14.161Z,7.50
2023-04-09T16:48:21.791Z,7.68
2023-04-09T16:50:27.981Z,7.07
2023-04-09T16:52:35.460Z,7.22
2023-04-09T16:54:40.547Z,5.43
2023-04-09T16:56:45.675Z,6.40
2023-04-09T16:58:50.782Z,8.93
2023-04-09T17:00:55.979Z,10.05
2023-04-09T17:03:02.307Z,9.07
2023-04-09T17:05:11.699Z,5.90
2023-04-09T17:07:17.901Z,7.03
2023-04-09T17:09:22.893Z,8.32
2023-04-09T17:11:27.930Z,6.10
2023-04-09T17:13:36.066Z,6.03
2023-04-09T17:15:41.634Z,6.55
2023-04-09T17:17:51.512Z,9.02
2023-04-09T17:19:58.521Z,12.25
2023-04-09T17:22:06.468Z,9.20
2023-04-09T17:24:11.539Z,13.57
2023-04-09T17:26:17.026Z,9.05
2023-04-09T17:28:22.833Z,12.95
2023-04-09T17:30:27.837Z,9.73
2023-04-09T17:32:32.917Z,10.27
2023-04-09T17:34:37.991Z,6.78
2023-04-09T17:36:43.202Z,9.70
2023-04-09T17:38:53.991Z,7.65
2023-04-09T17:40:59.162Z,8.10
2023-04-09T17:43:04.285Z,17.25
2023-04-09T17:45:11.946Z,8.18
2023-04-09T17:47:17.222Z,7.95
2023-04-09T17:49:22.525Z,8.15
2023-04-09T17:51:27.867Z,8.75
2023-04-09T17:53:33.201Z,17.38
2023-04-09T17:55:40.770Z,8.07
2023-04-09T17:57:46.137Z,10.98
2023-04-09T17:59:52.291Z,7.00
2023-04-09T18:01:57.906Z,9.68
2023-04-09T18:04:03.975Z,9.35
2023-04-09T18:06:10.155Z,11.43
2023-04-09T18:08:15.885Z,9.23
2023-04-09T18:10:21.424Z,10.02
2023-04-09T18:12:29.223Z,8.80
2023-04-09T18:14:34.752Z,11.95
2023-04-09T18:16:42.161Z,9.10
2023-04-09T18:18:47.477Z,9.55
2023-04-09T18:20:53.738Z,10.57
2023-04-09T18:22:58.742Z,8.32
2023-04-09T18:25:04.333Z,8.32
2023-04-09T18:27:09.584Z,11.02
2023-04-09T18:29:17.449Z,11.43
2023-04-09T18:31:22.605Z,23.25
2023-04-09T18:33:27.906Z,14.48
2023-04-09T18:35:32.939Z,8.30
2023-04-09T18:37:38.438Z,18.05
2023-04-09T18:39:43.734Z,9.55
2023-04-09T18:41:49.030Z,9.43
2023-04-09T18:43:54.077Z,9.73
2023-04-09T18:46:01.864Z,11.27
2023-04-09T18:48:08.357Z,11.48
2023-04-09T18:50:15.936Z,8.88
2023-04-09T18:52:20.927Z,13.18
2023-04-09T18:54:26.310Z,12.02
2023-04-09T18:56:31.639Z,11.63
2023-04-09T18:58:36.848Z,10.93
2023-04-09T19:00:42.346Z,13.00
2023-04-09T19:02:50.078Z,14.63
2023-04-09T19:04:56.483Z,14.68
2023-04-09T19:07:01.498Z,17.60
2023-04-09T19:09:06.806Z,11.30
2023-04-09T19:11:12.759Z,11.90
2023-04-09T19:13:18.409Z,12.52
2023-04-09T19:15:24.230Z,9.35
2023-04-09T19:17:29.553Z,10.60
2023-04-09T19:19:37.588Z,12.05
2023-04-09T19:21:42.650Z,13.20
2023-04-09T19:23:48.260Z,12.20
2023-04-09T19:25:55.382Z,12.70
2023-04-09T19:28:00.547Z,11.98
2023-04-09T19:30:05.936Z,13.02
2023-04-09T19:32:13.384Z,12.88
2023-04-09T19:34:18.480Z,15.90
2023-04-09T19:36:26.952Z,12.07
2023-04-09T19:38:32.092Z,11.30
2023-04-09T19:40:37.348Z,11.30
2023-04-09T19:42:42.374Z,9.95
2023-04-09T19:44:47.580Z,9.85
2023-04-09T19:46:52.636Z,12.93
2023-04-09T19:48:57.792Z,13.57
2023-04-09T19:51:03.286Z,10.70
2023-04-09T19:53:10.957Z,17.23
2023-04-09T19:55:16.031Z,11.52
2023-04-09T19:57:21.010Z,17.88
2023-04-09T19:59:26.315Z,13.23
2023-04-09T20:01:31.555Z,15.60
2023-04-09T20:03:36.716Z,15.35
2023-04-09T20:05:41.808Z,18.75
2023-04-09T20:07:47.114Z,20.08
2023-04-09T20:09:54.803Z,13.65
2023-04-09T20:12:04.496Z,13.50
2023-04-09T20:14:11.320Z,17.48
2023-04-09T20:16:16.729Z,28.73
2023-04-09T20:18:21.782Z,14.13
2023-04-09T20:20:27.369Z,15.75
2023-04-09T20:22:32.382Z,14.77
2023-04-09T20:24:38.487Z,18.30
2023-04-09T20:26:46.505Z,26.40
2023-04-09T20:28:51.790Z,18.63
2023-04-09T20:30:57.003Z,14.57
2023-04-09T20:33:02.201Z,19.65
2023-04-09T20:35:09.498Z,15.65
2023-04-09T20:37:14.880Z,20.85
2023-04-09T20:39:19.955Z,17.50
2023-04-09T20:41:24.971Z,16.77
2023-04-09T20:43:32.752Z,15.60
2023-04-09T20:45:37.850Z,19.85
2023-04-09T20:47:43.225Z,15.45
2023-04-09T20:49:49.154Z,18.20
2023-04-09T20:51:54.195Z,19.00
2023-04-09T20:54:01.630Z,17.10
2023-04-09T20:56:07.442Z,16.80
2023-04-09T20:58:12.709Z,16.83
2023-04-09T21:00:20.744Z,17.98
2023-04-09T21:02:26.007Z,18.60
2023-04-09T21:04:31.329Z,23.13
2023-04-09T21:06:37.261Z,22.20
2023-04-09T21:08:43.737Z,16.65
2023-04-09T21:10:48.745Z,17.90
2023-04-09T21:12:53.876Z,17.63
2023-04-09T21:14:58.925Z,19.90
2023-04-09T21:17:06.976Z,25.05
2023-04-09T21:19:12.070Z,19.73
2023-04-09T21:21:17.194Z,18.10
2023-04-09T21:23:22.200Z,18.05
2023-04-09T21:25:30.379Z,17.17
2023-04-09T21:27:35.659Z,22.20
2023-04-09T21:29:40.821Z,18.38
2023-04-09T21:31:45.842Z,17.92
2023-04-09T21:33:53.426Z,21.05
2023-04-09T21:35:58.549Z,19.70
2023-04-09T21:38:03.719Z,19.63
2023-04-09T21:40:12.980Z,18.20
2023-04-09T21:42:18.000Z,16.65
2023-04-09T21:44:23.092Z,17.58
2023-04-09T21:46:28.288Z,16.33
2023-04-09T21:48:33.921Z,17.70
2023-04-09T21:50:41.861Z,20.15
2023-04-09T21:52:48.567Z,16.98
2023-04-09T21:54:53.583Z,20.17
2023-04-09T21:56:58.605Z,18.48
2023-04-09T21:59:03.787Z,18.92
2023-04-09T22:01:22.426Z,17.98
2023-04-09T22:03:35.059Z,19.90
2023-04-09T22:05:42.778Z,17.15
2023-04-09T22:07:47.799Z,17.10
2023-04-09T22:09:53.047Z,17.13
2023-04-09T22:11:58.635Z,18.77
2023-04-09T22:14:03.672Z,21.58
2023-04-09T22:16:10.344Z,19.63
2023-04-09T22:18:15.838Z,18.77
2023-04-09T22:20:20.902Z,17.35
2023-04-09T22:22:28.533Z,18.40
2023-04-09T22:24:34.174Z,17.27
2023-04-09T22:26:41.025Z,22.80
2023-04-09T22:28:46.244Z,19.95
2023-04-09T22:30:51.629Z,19.08
2023-04-09T22:32:56.669Z,20.40
2023-04-09T22:35:01.738Z,18.65
2023-04-09T22:37:06.793Z,17.40
2023-04-09T22:39:14.667Z,18.42
2023-04-09T22:41:20.168Z,21.00
2023-04-09T22:43:25.552Z,20.58
2023-04-09T22:45:32.342Z,17.55
2023-04-09T22:47:37.398Z,18.85
2023-04-09T22:49:42.889Z,18.60
2023-04-09T22:51:48.590Z,21.77
2023-04-09T22:53:53.579Z,21.38
2023-04-09T22:56:02.208Z,20.40
2023-04-09T22:58:07.501Z,19.73
2023-04-09T23:00:13.657Z,20.52
2023-04-09T23:02:18.767Z,20.27
2023-04-09T23:04:25.463Z,21.40
2023-04-09T23:06:31.061Z,17.17
2023-04-09T23:10:41.408Z,26.27
2023-04-09T23:12:49.457Z,20.50
2023-04-09T23:14:54.496Z,19.85
2023-04-09T23:16:59.546Z,17.42
2023-04-09T23:19:04.792Z,21.38
2023-04-09T23:21:11.022Z,20.33
2023-04-09T23:23:16.190Z,18.15
2023-04-09T23:25:21.988Z,17.85
2023-04-09T23:27:28.939Z,16.67
2023-04-09T23:29:36.953Z,19.80
2023-04-09T23:31:41.995Z,19.08
2023-04-09T23:33:47.247Z,19.35
2023-04-09T23:35:52.333Z,19.63
2023-04-09T23:37:58.646Z,18.40
2023-04-09T23:40:03.994Z,17.77
2023-04-09T23:42:09.016Z,18.80
2023-04-09T23:44:14.021Z,16.63
2023-04-09T23:46:21.918Z,18.58
2023-04-09T23:48:26.964Z,17.02
2023-04-09T23:50:31.965Z,18.58
2023-04-09T23:52:40.369Z,18.52
2023-04-09T23:54:51.966Z,18.38
2023-04-09T23:56:58.223Z,19.00
2023-04-09T23:59:03.230Z,16.13
